sensor_id;sensor_type;location;lat;lon;timestamp;P1;durP1;ratioP1;P2;durP2;ratioP2
81195;SDS011;70671;43.888;-79.394;2023-07-13T00:00:48;4.47;;;1.85;;
81195;SDS011;70671;43.888;-79.394;2023-07-13T00:03:13;7.50;;;2.20;;
81195;SDS011;70671;43.888;-79.394;2023-07-13T00:05:40;5.60;;;2.10;;
81195;SDS011;70671;43.888;-79.394;2023-07-13T00:08:06;4.03;;;1.55;;
81195;SDS011;70671;43.888;-79.394;2023-07-13T00:10:33;5.47;;;2.20;;
81195;SDS011;70671;43.888;-79.394;2023-07-13T00:15:29;6.55;;;2.13;;
81195;SDS011;70671;43.888;-79.394;2023-07-13T00:17:56;7.45;;;2.00;;
81195;SDS011;70671;43.888;-79.394;2023-07-13T00:20:23;7.20;;;1.92;;
81195;SDS011;70671;43.888;-79.394;2023-07-13T00:22:53;6.38;;;2.00;;
81195;SDS011;70671;43.888;-79.394;2023-07-13T00:25:22;6.22;;;2.20;;
81195;SDS011;70671;43.888;-79.394;2023-07-13T00:27:53;5.25;;;1.65;;
81195;SDS011;70671;43.888;-79.394;2023-07-13T00:30:20;5.03;;;1.90;;
81195;SDS011;70671;43.888;-79.394;2023-07-13T00:32:46;7.05;;;1.80;;
81195;SDS011;70671;43.888;-79.394;2023-07-13T00:35:13;5.20;;;2.10;;
81195;SDS011;70671;43.888;-79.394;2023-07-13T00:37:40;5.45;;;1.92;;
81195;SDS011;70671;43.888;-79.394;2023-07-13T00:40:06;4.50;;;1.80;;
81195;SDS011;70671;43.888;-79.394;2023-07-13T00:42:33;6.75;;;2.03;;
81195;SDS011;70671;43.888;-79.394;2023-07-13T00:47:37;4.80;;;1.60;;
81195;SDS011;70671;43.888;-79.394;2023-07-13T00:50:08;7.95;;;2.30;;
81195;SDS011;70671;43.888;-79.394;2023-07-13T00:52:36;4.03;;;1.77;;
81195;SDS011;70671;43.888;-79.394;2023-07-13T00:55:05;4.25;;;1.80;;
81195;SDS011;70671;43.888;-79.394;2023-07-13T00:57:34;6.93;;;2.00;;
81195;SDS011;70671;43.888;-79.394;2023-07-13T01:00:01;5.30;;;2.30;;
81195;SDS011;70671;43.888;-79.394;2023-07-13T01:02:37;5.15;;;1.88;;
81195;SDS011;70671;43.888;-79.394;2023-07-13T01:05:11;9.80;;;2.75;;
81195;SDS011;70671;43.888;-79.394;2023-07-13T01:07:42;6.95;;;1.80;;
81195;SDS011;70671;43.888;-79.394;2023-07-13T01:10:10;4.45;;;1.80;;
81195;SDS011;70671;43.888;-79.394;2023-07-13T01:12:38;6.88;;;2.42;;
81195;SDS011;70671;43.888;-79.394;2023-07-13T01:15:04;6.32;;;2.30;;
81195;SDS011;70671;43.888;-79.394;2023-07-13T01:17:34;4.82;;;1.80;;
81195;SDS011;70671;43.888;-79.394;2023-07-13T01:20:00;7.85;;;2.22;;
81195;SDS011;70671;43.888;-79.394;2023-07-13T01:22:26;12.15;;;2.40;;
81195;SDS011;70671;43.888;-79.394;2023-07-13T01:24:53;7.55;;;1.77;;
81195;SDS011;70671;43.888;-79.394;2023-07-13T01:27:24;6.30;;;2.05;;
81195;SDS011;70671;43.888;-79.394;2023-07-13T01:29:52;5.88;;;2.00;;
81195;SDS011;70671;43.888;-79.394;2023-07-13T01:32:20;4.47;;;1.70;;
81195;SDS011;70671;43.888;-79.394;2023-07-13T01:34:52;7.32;;;2.05;;
81195;SDS011;70671;43.888;-79.394;2023-07-13T01:37:23;5.10;;;2.13;;
81195;SDS011;70671;43.888;-79.394;2023-07-13T01:39:50;5.15;;;1.90;;
81195;SDS011;70671;43.888;-79.394;2023-07-13T01:42:17;6.72;;;2.38;;
81195;SDS011;70671;43.888;-79.394;2023-07-13T01:44:43;5.90;;;2.03;;
81195;SDS011;70671;43.888;-79.394;2023-07-13T01:47:09;6.72;;;2.40;;
81195;SDS011;70671;43.888;-79.394;2023-07-13T01:49:36;7.57;;;2.20;;
81195;SDS011;70671;43.888;-79.394;2023-07-13T01:52:03;5.45;;;1.88;;
81195;SDS011;70671;43.888;-79.394;2023-07-13T01:54:29;5.10;;;2.20;;
81195;SDS011;70671;43.888;-79.394;2023-07-13T01:56:55;4.97;;;1.70;;
81195;SDS011;70671;43.888;-79.394;2023-07-13T01:59:21;5.05;;;1.70;;
81195;SDS011;70671;43.888;-79.394;2023-07-13T02:01:47;5.43;;;1.90;;
81195;SDS011;70671;43.888;-79.394;2023-07-13T02:04:13;5.72;;;1.95;;
81195;SDS011;70671;43.888;-79.394;2023-07-13T02:06:39;6.20;;;1.77;;
81195;SDS011;70671;43.888;-79.394;2023-07-13T02:09:05;5.07;;;2.00;;
81195;SDS011;70671;43.888;-79.394;2023-07-13T02:11:32;7.97;;;2.05;;
81195;SDS011;70671;43.888;-79.394;2023-07-13T02:14:01;4.75;;;2.00;;
81195;SDS011;70671;43.888;-79.394;2023-07-13T02:16:28;6.10;;;1.83;;
81195;SDS011;70671;43.888;-79.394;2023-07-13T02:18:55;4.65;;;1.65;;
81195;SDS011;70671;43.888;-79.394;2023-07-13T02:21:21;4.47;;;1.85;;
81195;SDS011;70671;43.888;-79.394;2023-07-13T02:23:48;5.80;;;1.58;;
81195;SDS011;70671;43.888;-79.394;2023-07-13T02:26:15;6.65;;;1.85;;
81195;SDS011;70671;43.888;-79.394;2023-07-13T02:28:41;8.65;;;2.25;;
81195;SDS011;70671;43.888;-79.394;2023-07-13T02:31:08;7.93;;;2.35;;
81195;SDS011;70671;43.888;-79.394;2023-07-13T02:33:36;4.75;;;1.80;;
81195;SDS011;70671;43.888;-79.394;2023-07-13T02:36:02;7.70;;;2.05;;
81195;SDS011;70671;43.888;-79.394;2023-07-13T02:38:31;5.30;;;2.00;;
81195;SDS011;70671;43.888;-79.394;2023-07-13T02:41:01;5.97;;;1.90;;
81195;SDS011;70671;43.888;-79.394;2023-07-13T02:43:31;6.18;;;2.00;;
81195;SDS011;70671;43.888;-79.394;2023-07-13T02:45:58;6.82;;;2.15;;
81195;SDS011;70671;43.888;-79.394;2023-07-13T02:48:29;3.95;;;1.65;;
81195;SDS011;70671;43.888;-79.394;2023-07-13T02:50:55;5.82;;;1.75;;
81195;SDS011;70671;43.888;-79.394;2023-07-13T02:53:21;3.83;;;1.52;;
81195;SDS011;70671;43.888;-79.394;2023-07-13T02:55:47;4.47;;;1.60;;
81195;SDS011;70671;43.888;-79.394;2023-07-13T02:58:13;5.38;;;2.45;;
81195;SDS011;70671;43.888;-79.394;2023-07-13T03:00:42;6.40;;;1.90;;
81195;SDS011;70671;43.888;-79.394;2023-07-13T03:03:11;4.15;;;1.65;;
81195;SDS011;70671;43.888;-79.394;2023-07-13T03:05:39;2.78;;;1.30;;
81195;SDS011;70671;43.888;-79.394;2023-07-13T03:08:07;3.58;;;1.48;;
81195;SDS011;70671;43.888;-79.394;2023-07-13T03:10:37;4.90;;;1.77;;
81195;SDS011;70671;43.888;-79.394;2023-07-13T03:13:05;4.75;;;1.40;;
81195;SDS011;70671;43.888;-79.394;2023-07-13T03:15:31;3.58;;;1.65;;
81195;SDS011;70671;43.888;-79.394;2023-07-13T03:17:57;4.65;;;1.40;;
81195;SDS011;70671;43.888;-79.394;2023-07-13T03:20:23;5.22;;;1.80;;
81195;SDS011;70671;43.888;-79.394;2023-07-13T03:22:49;5.00;;;1.73;;
81195;SDS011;70671;43.888;-79.394;2023-07-13T03:25:15;4.90;;;1.90;;
81195;SDS011;70671;43.888;-79.394;2023-07-13T03:27:41;5.43;;;1.63;;
81195;SDS011;70671;43.888;-79.394;2023-07-13T03:30:07;4.88;;;1.55;;
81195;SDS011;70671;43.888;-79.394;2023-07-13T03:32:33;4.47;;;1.77;;
81195;SDS011;70671;43.888;-79.394;2023-07-13T03:34:59;5.68;;;1.90;;
81195;SDS011;70671;43.888;-79.394;2023-07-13T03:37:26;6.30;;;1.70;;
81195;SDS011;70671;43.888;-79.394;2023-07-13T03:39:52;5.53;;;1.73;;
81195;SDS011;70671;43.888;-79.394;2023-07-13T03:42:18;4.63;;;1.60;;
81195;SDS011;70671;43.888;-79.394;2023-07-13T03:44:44;4.35;;;1.73;;
81195;SDS011;70671;43.888;-79.394;2023-07-13T03:47:15;3.40;;;1.50;;
81195;SDS011;70671;43.888;-79.394;2023-07-13T03:49:41;4.28;;;1.70;;
81195;SDS011;70671;43.888;-79.394;2023-07-13T03:52:07;6.82;;;1.60;;
81195;SDS011;70671;43.888;-79.394;2023-07-13T03:54:33;4.40;;;2.00;;
81195;SDS011;70671;43.888;-79.394;2023-07-13T03:56:59;3.90;;;1.63;;
81195;SDS011;70671;43.888;-79.394;2023-07-13T03:59:25;5.07;;;1.80;;
81195;SDS011;70671;43.888;-79.394;2023-07-13T04:01:51;4.35;;;1.77;;
81195;SDS011;70671;43.888;-79.394;2023-07-13T04:04:17;5.57;;;2.35;;
81195;SDS011;70671;43.888;-79.394;2023-07-13T04:06:43;5.07;;;1.70;;
81195;SDS011;70671;43.888;-79.394;2023-07-13T04:09:09;7.30;;;1.77;;
81195;SDS011;70671;43.888;-79.394;2023-07-13T04:11:35;4.25;;;1.70;;
81195;SDS011;70671;43.888;-79.394;2023-07-13T04:14:03;5.15;;;1.80;;
81195;SDS011;70671;43.888;-79.394;2023-07-13T04:16:30;2.42;;;1.35;;
81195;SDS011;70671;43.888;-79.394;2023-07-13T04:18:56;5.47;;;1.80;;
81195;SDS011;70671;43.888;-79.394;2023-07-13T04:21:25;4.63;;;1.55;;
81195;SDS011;70671;43.888;-79.394;2023-07-13T04:23:53;7.00;;;1.95;;
81195;SDS011;70671;43.888;-79.394;2023-07-13T04:26:19;6.35;;;1.73;;
81195;SDS011;70671;43.888;-79.394;2023-07-13T04:28:48;7.18;;;1.80;;
81195;SDS011;70671;43.888;-79.394;2023-07-13T04:31:14;3.22;;;1.63;;
81195;SDS011;70671;43.888;-79.394;2023-07-13T04:33:41;5.40;;;1.95;;
81195;SDS011;70671;43.888;-79.394;2023-07-13T04:36:08;4.40;;;1.58;;
81195;SDS011;70671;43.888;-79.394;2023-07-13T04:38:35;3.50;;;1.65;;
81195;SDS011;70671;43.888;-79.394;2023-07-13T04:41:04;5.50;;;1.85;;
81195;SDS011;70671;43.888;-79.394;2023-07-13T04:43:31;3.63;;;1.45;;
81195;SDS011;70671;43.888;-79.394;2023-07-13T04:46:02;7.15;;;2.17;;
81195;SDS011;70671;43.888;-79.394;2023-07-13T04:48:32;5.30;;;1.90;;
81195;SDS011;70671;43.888;-79.394;2023-07-13T04:50:59;3.35;;;1.60;;
81195;SDS011;70671;43.888;-79.394;2023-07-13T04:53:25;5.93;;;1.92;;
81195;SDS011;70671;43.888;-79.394;2023-07-13T04:55:52;4.18;;;1.48;;
81195;SDS011;70671;43.888;-79.394;2023-07-13T04:58:18;5.70;;;1.98;;
81195;SDS011;70671;43.888;-79.394;2023-07-13T05:00:44;4.88;;;2.08;;
81195;SDS011;70671;43.888;-79.394;2023-07-13T05:03:10;3.80;;;1.50;;
81195;SDS011;70671;43.888;-79.394;2023-07-13T05:05:36;4.18;;;1.63;;
81195;SDS011;70671;43.888;-79.394;2023-07-13T05:08:02;3.72;;;1.40;;
81195;SDS011;70671;43.888;-79.394;2023-07-13T05:10:36;5.30;;;1.82;;
81195;SDS011;70671;43.888;-79.394;2023-07-13T05:13:09;5.63;;;2.40;;
81195;SDS011;70671;43.888;-79.394;2023-07-13T05:15:35;4.82;;;1.90;;
81195;SDS011;70671;43.888;-79.394;2023-07-13T05:18:01;4.43;;;1.55;;
81195;SDS011;70671;43.888;-79.394;2023-07-13T05:20:27;4.47;;;1.90;;
81195;SDS011;70671;43.888;-79.394;2023-07-13T05:22:53;5.00;;;2.00;;
81195;SDS011;70671;43.888;-79.394;2023-07-13T05:25:19;3.95;;;1.75;;
81195;SDS011;70671;43.888;-79.394;2023-07-13T05:27:45;4.72;;;1.77;;
81195;SDS011;70671;43.888;-79.394;2023-07-13T05:30:12;5.97;;;1.67;;
81195;SDS011;70671;43.888;-79.394;2023-07-13T05:32:38;6.00;;;1.75;;
81195;SDS011;70671;43.888;-79.394;2023-07-13T05:35:05;6.28;;;1.52;;
81195;SDS011;70671;43.888;-79.394;2023-07-13T05:37:31;4.38;;;1.50;;
81195;SDS011;70671;43.888;-79.394;2023-07-13T05:39:57;6.20;;;2.08;;
81195;SDS011;70671;43.888;-79.394;2023-07-13T05:42:24;4.70;;;1.75;;
81195;SDS011;70671;43.888;-79.394;2023-07-13T05:44:50;5.18;;;1.80;;
81195;SDS011;70671;43.888;-79.394;2023-07-13T05:47:16;8.55;;;1.88;;
81195;SDS011;70671;43.888;-79.394;2023-07-13T05:49:42;4.57;;;1.75;;
81195;SDS011;70671;43.888;-79.394;2023-07-13T05:52:08;7.10;;;1.98;;
81195;SDS011;70671;43.888;-79.394;2023-07-13T05:54:34;5.50;;;1.70;;
81195;SDS011;70671;43.888;-79.394;2023-07-13T05:57:00;6.07;;;1.90;;
81195;SDS011;70671;43.888;-79.394;2023-07-13T05:59:26;8.07;;;2.63;;
81195;SDS011;70671;43.888;-79.394;2023-07-13T06:01:51;4.07;;;1.90;;
81195;SDS011;70671;43.888;-79.394;2023-07-13T06:04:18;5.93;;;2.03;;
81195;SDS011;70671;43.888;-79.394;2023-07-13T06:06:45;4.22;;;1.60;;
81195;SDS011;70671;43.888;-79.394;2023-07-13T06:09:11;3.55;;;1.70;;
81195;SDS011;70671;43.888;-79.394;2023-07-13T06:11:44;6.30;;;1.73;;
81195;SDS011;70671;43.888;-79.394;2023-07-13T06:14:10;7.32;;;1.73;;
81195;SDS011;70671;43.888;-79.394;2023-07-13T06:16:36;4.38;;;1.80;;
81195;SDS011;70671;43.888;-79.394;2023-07-13T06:19:02;4.78;;;2.00;;
81195;SDS011;70671;43.888;-79.394;2023-07-13T06:21:28;5.45;;;1.83;;
81195;SDS011;70671;43.888;-79.394;2023-07-13T06:23:55;4.15;;;1.60;;
81195;SDS011;70671;43.888;-79.394;2023-07-13T06:26:21;4.03;;;1.55;;
81195;SDS011;70671;43.888;-79.394;2023-07-13T06:28:47;5.78;;;1.90;;
81195;SDS011;70671;43.888;-79.394;2023-07-13T06:31:14;3.63;;;1.60;;
81195;SDS011;70671;43.888;-79.394;2023-07-13T06:33:40;9.65;;;2.15;;
81195;SDS011;70671;43.888;-79.394;2023-07-13T06:36:07;5.95;;;2.20;;
81195;SDS011;70671;43.888;-79.394;2023-07-13T06:38:34;8.68;;;1.92;;
81195;SDS011;70671;43.888;-79.394;2023-07-13T06:41:04;6.25;;;2.00;;
81195;SDS011;70671;43.888;-79.394;2023-07-13T06:43:30;9.18;;;2.60;;
81195;SDS011;70671;43.888;-79.394;2023-07-13T06:45:57;9.32;;;2.50;;
81195;SDS011;70671;43.888;-79.394;2023-07-13T06:48:23;8.18;;;2.70;;
81195;SDS011;70671;43.888;-79.394;2023-07-13T06:50:49;5.18;;;2.03;;
81195;SDS011;70671;43.888;-79.394;2023-07-13T06:53:17;5.70;;;2.70;;
81195;SDS011;70671;43.888;-79.394;2023-07-13T06:55:44;8.52;;;2.25;;
81195;SDS011;70671;43.888;-79.394;2023-07-13T06:58:11;6.50;;;2.30;;
81195;SDS011;70671;43.888;-79.394;2023-07-13T07:00:37;8.38;;;2.67;;
81195;SDS011;70671;43.888;-79.394;2023-07-13T07:03:05;7.38;;;2.30;;
81195;SDS011;70671;43.888;-79.394;2023-07-13T07:05:31;6.30;;;2.60;;
81195;SDS011;70671;43.888;-79.394;2023-07-13T07:07:58;7.70;;;2.72;;
81195;SDS011;70671;43.888;-79.394;2023-07-13T07:10:24;10.98;;;3.28;;
81195;SDS011;70671;43.888;-79.394;2023-07-13T07:12:51;9.52;;;3.45;;
81195;SDS011;70671;43.888;-79.394;2023-07-13T07:15:17;11.60;;;3.17;;
81195;SDS011;70671;43.888;-79.394;2023-07-13T07:17:43;12.10;;;3.55;;
81195;SDS011;70671;43.888;-79.394;2023-07-13T07:20:10;8.70;;;3.25;;
81195;SDS011;70671;43.888;-79.394;2023-07-13T07:22:36;9.82;;;3.47;;
81195;SDS011;70671;43.888;-79.394;2023-07-13T07:25:02;10.02;;;3.70;;
81195;SDS011;70671;43.888;-79.394;2023-07-13T07:27:28;9.65;;;3.55;;
81195;SDS011;70671;43.888;-79.394;2023-07-13T07:29:54;12.80;;;3.78;;
81195;SDS011;70671;43.888;-79.394;2023-07-13T07:32:22;10.88;;;4.15;;
81195;SDS011;70671;43.888;-79.394;2023-07-13T07:34:48;13.23;;;3.60;;
81195;SDS011;70671;43.888;-79.394;2023-07-13T07:37:14;11.23;;;3.67;;
81195;SDS011;70671;43.888;-79.394;2023-07-13T07:39:42;9.35;;;3.58;;
81195;SDS011;70671;43.888;-79.394;2023-07-13T07:42:08;8.30;;;3.10;;
81195;SDS011;70671;43.888;-79.394;2023-07-13T07:44:34;13.18;;;3.20;;
81195;SDS011;70671;43.888;-79.394;2023-07-13T07:47:00;9.43;;;3.45;;
81195;SDS011;70671;43.888;-79.394;2023-07-13T07:49:26;11.02;;;3.50;;
81195;SDS011;70671;43.888;-79.394;2023-07-13T07:51:53;8.13;;;3.40;;
81195;SDS011;70671;43.888;-79.394;2023-07-13T07:54:25;10.07;;;3.35;;
81195;SDS011;70671;43.888;-79.394;2023-07-13T07:56:51;9.25;;;3.75;;
81195;SDS011;70671;43.888;-79.394;2023-07-13T07:59:18;8.40;;;3.45;;
81195;SDS011;70671;43.888;-79.394;2023-07-13T08:01:44;8.77;;;3.15;;
81195;SDS011;70671;43.888;-79.394;2023-07-13T08:04:13;7.90;;;3.40;;
81195;SDS011;70671;43.888;-79.394;2023-07-13T08:06:39;11.02;;;3.42;;
81195;SDS011;70671;43.888;-79.394;2023-07-13T08:09:05;8.13;;;3.60;;
81195;SDS011;70671;43.888;-79.394;2023-07-13T08:11:31;11.35;;;3.83;;
81195;SDS011;70671;43.888;-79.394;2023-07-13T08:13:57;10.82;;;4.25;;
81195;SDS011;70671;43.888;-79.394;2023-07-13T08:16:23;9.43;;;3.95;;
81195;SDS011;70671;43.888;-79.394;2023-07-13T08:18:49;12.32;;;4.47;;
81195;SDS011;70671;43.888;-79.394;2023-07-13T08:21:15;8.20;;;3.33;;
81195;SDS011;70671;43.888;-79.394;2023-07-13T08:23:41;8.85;;;3.67;;
81195;SDS011;70671;43.888;-79.394;2023-07-13T08:26:07;8.98;;;3.55;;
81195;SDS011;70671;43.888;-79.394;2023-07-13T08:28:34;7.00;;;2.47;;
81195;SDS011;70671;43.888;-79.394;2023-07-13T08:31:04;6.65;;;3.00;;
81195;SDS011;70671;43.888;-79.394;2023-07-13T08:33:33;6.95;;;2.53;;
81195;SDS011;70671;43.888;-79.394;2023-07-13T08:36:00;5.20;;;2.55;;
81195;SDS011;70671;43.888;-79.394;2023-07-13T08:38:26;8.02;;;3.00;;
81195;SDS011;70671;43.888;-79.394;2023-07-13T08:40:53;7.70;;;3.28;;
81195;SDS011;70671;43.888;-79.394;2023-07-13T08:43:39;7.60;;;3.10;;
81195;SDS011;70671;43.888;-79.394;2023-07-13T08:48:41;5.93;;;2.75;;
81195;SDS011;70671;43.888;-79.394;2023-07-13T08:53:54;9.35;;;3.90;;
81195;SDS011;70671;43.888;-79.394;2023-07-13T08:56:24;8.57;;;3.40;;
81195;SDS011;70671;43.888;-79.394;2023-07-13T08:58:55;8.52;;;3.55;;
81195;SDS011;70671;43.888;-79.394;2023-07-13T09:01:54;9.18;;;3.20;;
81195;SDS011;70671;43.888;-79.394;2023-07-13T09:04:44;8.45;;;3.78;;
81195;SDS011;70671;43.888;-79.394;2023-07-13T09:07:18;9.15;;;3.42;;
81195;SDS011;70671;43.888;-79.394;2023-07-13T09:10:05;7.82;;;3.17;;
81195;SDS011;70671;43.888;-79.394;2023-07-13T09:15:30;7.47;;;3.00;;
81195;SDS011;70671;43.888;-79.394;2023-07-13T09:17:59;7.25;;;3.22;;
81195;SDS011;70671;43.888;-79.394;2023-07-13T09:20:44;8.40;;;3.42;;
81195;SDS011;70671;43.888;-79.394;2023-07-13T09:23:14;8.40;;;3.55;;
81195;SDS011;70671;43.888;-79.394;2023-07-13T09:25:48;7.53;;;3.45;;
81195;SDS011;70671;43.888;-79.394;2023-07-13T09:28:24;7.25;;;2.92;;
81195;SDS011;70671;43.888;-79.394;2023-07-13T09:34:04;8.23;;;3.63;;
81195;SDS011;70671;43.888;-79.394;2023-07-13T09:36:34;8.48;;;3.13;;
81195;SDS011;70671;43.888;-79.394;2023-07-13T09:44:27;6.20;;;2.72;;
81195;SDS011;70671;43.888;-79.394;2023-07-13T09:47:00;7.80;;;2.85;;
81195;SDS011;70671;43.888;-79.394;2023-07-13T09:49:33;7.82;;;3.30;;
81195;SDS011;70671;43.888;-79.394;2023-07-13T09:52:05;6.97;;;2.53;;
81195;SDS011;70671;43.888;-79.394;2023-07-13T09:54:36;8.65;;;3.80;;
81195;SDS011;70671;43.888;-79.394;2023-07-13T09:57:12;9.57;;;2.72;;
81195;SDS011;70671;43.888;-79.394;2023-07-13T09:59:41;9.50;;;3.47;;
81195;SDS011;70671;43.888;-79.394;2023-07-13T10:05:02;8.45;;;3.25;;
81195;SDS011;70671;43.888;-79.394;2023-07-13T10:07:39;10.30;;;3.65;;
81195;SDS011;70671;43.888;-79.394;2023-07-13T10:10:15;7.88;;;3.40;;
81195;SDS011;70671;43.888;-79.394;2023-07-13T10:12:48;7.88;;;2.78;;
81195;SDS011;70671;43.888;-79.394;2023-07-13T10:15:20;7.60;;;3.67;;
81195;SDS011;70671;43.888;-79.394;2023-07-13T10:17:48;9.45;;;3.53;;
81195;SDS011;70671;43.888;-79.394;2023-07-13T10:20:16;8.10;;;3.30;;
81195;SDS011;70671;43.888;-79.394;2023-07-13T10:25:31;7.50;;;2.88;;
81195;SDS011;70671;43.888;-79.394;2023-07-13T10:28:04;7.80;;;3.22;;
81195;SDS011;70671;43.888;-79.394;2023-07-13T10:30:52;9.60;;;3.13;;
81195;SDS011;70671;43.888;-79.394;2023-07-13T10:33:19;6.72;;;2.90;;
81195;SDS011;70671;43.888;-79.394;2023-07-13T10:35:47;7.43;;;3.42;;
81195;SDS011;70671;43.888;-79.394;2023-07-13T10:38:23;8.20;;;3.60;;
81195;SDS011;70671;43.888;-79.394;2023-07-13T10:41:03;10.65;;;3.70;;
81195;SDS011;70671;43.888;-79.394;2023-07-13T10:43:37;9.20;;;4.22;;
81195;SDS011;70671;43.888;-79.394;2023-07-13T10:46:08;11.43;;;4.90;;
81195;SDS011;70671;43.888;-79.394;2023-07-13T10:48:36;9.80;;;4.50;;
81195;SDS011;70671;43.888;-79.394;2023-07-13T10:51:04;10.60;;;4.25;;
81195;SDS011;70671;43.888;-79.394;2023-07-13T10:53:33;9.43;;;4.38;;
81195;SDS011;70671;43.888;-79.394;2023-07-13T10:56:02;13.00;;;4.70;;
81195;SDS011;70671;43.888;-79.394;2023-07-13T10:58:44;9.50;;;4.10;;
81195;SDS011;70671;43.888;-79.394;2023-07-13T11:01:12;8.88;;;4.82;;
81195;SDS011;70671;43.888;-79.394;2023-07-13T11:09:17;12.35;;;5.03;;
81195;SDS011;70671;43.888;-79.394;2023-07-13T11:12:01;9.35;;;5.03;;
81195;SDS011;70671;43.888;-79.394;2023-07-13T11:20:37;8.23;;;3.90;;
81195;SDS011;70671;43.888;-79.394;2023-07-13T11:25:37;10.10;;;4.90;;
81195;SDS011;70671;43.888;-79.394;2023-07-13T11:30:37;9.30;;;4.70;;
81195;SDS011;70671;43.888;-79.394;2023-07-13T11:35:52;8.75;;;4.55;;
81195;SDS011;70671;43.888;-79.394;2023-07-13T11:38:43;10.57;;;4.35;;
81195;SDS011;70671;43.888;-79.394;2023-07-13T11:44:33;10.35;;;5.40;;
81195;SDS011;70671;43.888;-79.394;2023-07-13T11:46:55;10.35;;;5.43;;
81195;SDS011;70671;43.888;-79.394;2023-07-13T11:49:28;11.65;;;5.35;;
81195;SDS011;70671;43.888;-79.394;2023-07-13T11:51:56;10.35;;;5.45;;
81195;SDS011;70671;43.888;-79.394;2023-07-13T11:54:27;11.35;;;5.18;;
81195;SDS011;70671;43.888;-79.394;2023-07-13T11:56:55;13.07;;;6.30;;
81195;SDS011;70671;43.888;-79.394;2023-07-13T11:59:43;12.50;;;6.22;;
81195;SDS011;70671;43.888;-79.394;2023-07-13T12:02:14;13.50;;;5.90;;
81195;SDS011;70671;43.888;-79.394;2023-07-13T12:04:49;12.68;;;6.22;;
81195;SDS011;70671;43.888;-79.394;2023-07-13T12:07:18;15.57;;;7.30;;
81195;SDS011;70671;43.888;-79.394;2023-07-13T12:09:44;20.17;;;8.20;;
81195;SDS011;70671;43.888;-79.394;2023-07-13T12:12:11;13.43;;;7.72;;
81195;SDS011;70671;43.888;-79.394;2023-07-13T12:14:39;15.90;;;8.00;;
81195;SDS011;70671;43.888;-79.394;2023-07-13T12:17:13;16.02;;;8.77;;
81195;SDS011;70671;43.888;-79.394;2023-07-13T12:19:43;19.25;;;8.75;;
81195;SDS011;70671;43.888;-79.394;2023-07-13T12:22:12;15.90;;;8.98;;
81195;SDS011;70671;43.888;-79.394;2023-07-13T12:24:42;15.73;;;8.65;;
81195;SDS011;70671;43.888;-79.394;2023-07-13T12:27:22;12.45;;;7.05;;
81195;SDS011;70671;43.888;-79.394;2023-07-13T12:29:59;10.52;;;5.63;;
81195;SDS011;70671;43.888;-79.394;2023-07-13T12:32:27;6.63;;;3.25;;
81195;SDS011;70671;43.888;-79.394;2023-07-13T12:34:56;4.90;;;2.15;;
81195;SDS011;70671;43.888;-79.394;2023-07-13T12:37:28;2.80;;;1.25;;
81195;SDS011;70671;43.888;-79.394;2023-07-13T12:39:56;3.30;;;1.30;;
81195;SDS011;70671;43.888;-79.394;2023-07-13T12:42:23;1.90;;;1.13;;
81195;SDS011;70671;43.888;-79.394;2023-07-13T12:44:53;2.33;;;1.10;;
81195;SDS011;70671;43.888;-79.394;2023-07-13T12:47:41;2.15;;;1.00;;
81195;SDS011;70671;43.888;-79.394;2023-07-13T12:50:18;2.38;;;0.90;;
81195;SDS011;70671;43.888;-79.394;2023-07-13T12:52:53;3.20;;;1.10;;
81195;SDS011;70671;43.888;-79.394;2023-07-13T12:55:23;2.63;;;0.75;;
81195;SDS011;70671;43.888;-79.394;2023-07-13T12:57:51;1.92;;;0.73;;
81195;SDS011;70671;43.888;-79.394;2023-07-13T13:03:05;8.32;;;1.17;;
81195;SDS011;70671;43.888;-79.394;2023-07-13T13:05:47;0.28;;;0.22;;
81195;SDS011;70671;43.888;-79.394;2023-07-13T13:08:14;0.47;;;0.35;;
81195;SDS011;70671;43.888;-79.394;2023-07-13T13:10:40;1.83;;;0.50;;
81195;SDS011;70671;43.888;-79.394;2023-07-13T13:13:06;2.58;;;0.50;;
81195;SDS011;70671;43.888;-79.394;2023-07-13T13:15:33;2.15;;;0.70;;
81195;SDS011;70671;43.888;-79.394;2023-07-13T13:18:02;1.23;;;0.35;;
81195;SDS011;70671;43.888;-79.394;2023-07-13T13:20:28;1.20;;;0.65;;
81195;SDS011;70671;43.888;-79.394;2023-07-13T13:22:54;1.00;;;0.50;;
81195;SDS011;70671;43.888;-79.394;2023-07-13T13:25:20;2.30;;;0.47;;
81195;SDS011;70671;43.888;-79.394;2023-07-13T13:27:47;2.28;;;0.80;;
81195;SDS011;70671;43.888;-79.394;2023-07-13T13:30:15;2.25;;;0.70;;
81195;SDS011;70671;43.888;-79.394;2023-07-13T13:32:44;1.25;;;0.60;;
81195;SDS011;70671;43.888;-79.394;2023-07-13T13:35:13;0.80;;;0.50;;
81195;SDS011;70671;43.888;-79.394;2023-07-13T13:37:40;0.88;;;0.50;;
81195;SDS011;70671;43.888;-79.394;2023-07-13T13:40:27;0.70;;;0.40;;
81195;SDS011;70671;43.888;-79.394;2023-07-13T13:42:53;0.68;;;0.43;;
81195;SDS011;70671;43.888;-79.394;2023-07-13T13:45:20;2.38;;;0.70;;
81195;SDS011;70671;43.888;-79.394;2023-07-13T13:47:46;1.45;;;0.70;;
81195;SDS011;70671;43.888;-79.394;2023-07-13T13:50:14;1.02;;;0.63;;
81195;SDS011;70671;43.888;-79.394;2023-07-13T13:52:42;2.03;;;0.63;;
81195;SDS011;70671;43.888;-79.394;2023-07-13T13:55:19;1.42;;;0.82;;
81195;SDS011;70671;43.888;-79.394;2023-07-13T13:57:46;0.95;;;0.68;;
81195;SDS011;70671;43.888;-79.394;2023-07-13T14:00:13;1.88;;;0.65;;
81195;SDS011;70671;43.888;-79.394;2023-07-13T14:02:44;3.13;;;1.55;;
81195;SDS011;70671;43.888;-79.394;2023-07-13T14:05:21;1.08;;;0.70;;
81195;SDS011;70671;43.888;-79.394;2023-07-13T14:07:51;0.68;;;0.60;;
81195;SDS011;70671;43.888;-79.394;2023-07-13T14:10:18;1.85;;;0.73;;
81195;SDS011;70671;43.888;-79.394;2023-07-13T14:12:45;3.28;;;0.93;;
81195;SDS011;70671;43.888;-79.394;2023-07-13T14:15:18;2.55;;;0.55;;
81195;SDS011;70671;43.888;-79.394;2023-07-13T14:17:47;1.50;;;0.75;;
81195;SDS011;70671;43.888;-79.394;2023-07-13T14:20:17;0.98;;;0.60;;
81195;SDS011;70671;43.888;-79.394;2023-07-13T14:22:44;0.85;;;0.60;;
81195;SDS011;70671;43.888;-79.394;2023-07-13T14:25:14;1.88;;;0.75;;
81195;SDS011;70671;43.888;-79.394;2023-07-13T14:27:41;2.15;;;0.80;;
81195;SDS011;70671;43.888;-79.394;2023-07-13T14:30:18;2.45;;;0.82;;
81195;SDS011;70671;43.888;-79.394;2023-07-13T14:32:46;0.73;;;0.60;;
81195;SDS011;70671;43.888;-79.394;2023-07-13T14:35:14;0.77;;;0.63;;
81195;SDS011;70671;43.888;-79.394;2023-07-13T14:37:42;1.80;;;0.93;;
81195;SDS011;70671;43.888;-79.394;2023-07-13T14:40:21;1.60;;;0.55;;
81195;SDS011;70671;43.888;-79.394;2023-07-13T14:42:52;1.17;;;0.80;;
81195;SDS011;70671;43.888;-79.394;2023-07-13T14:45:18;2.30;;;0.70;;
81195;SDS011;70671;43.888;-79.394;2023-07-13T14:47:45;3.28;;;0.65;;
81195;SDS011;70671;43.888;-79.394;2023-07-13T14:50:16;2.47;;;0.80;;
81195;SDS011;70671;43.888;-79.394;2023-07-13T14:52:44;1.35;;;0.68;;
81195;SDS011;70671;43.888;-79.394;2023-07-13T14:55:12;0.80;;;0.50;;
81195;SDS011;70671;43.888;-79.394;2023-07-13T14:57:40;1.95;;;0.70;;
81195;SDS011;70671;43.888;-79.394;2023-07-13T15:00:12;2.17;;;0.65;;
81195;SDS011;70671;43.888;-79.394;2023-07-13T15:02:43;1.60;;;0.75;;
81195;SDS011;70671;43.888;-79.394;2023-07-13T15:05:16;1.25;;;0.75;;
81195;SDS011;70671;43.888;-79.394;2023-07-13T15:07:45;1.05;;;0.60;;
81195;SDS011;70671;43.888;-79.394;2023-07-13T15:10:15;0.73;;;0.70;;
81195;SDS011;70671;43.888;-79.394;2023-07-13T15:12:43;1.92;;;0.68;;
81195;SDS011;70671;43.888;-79.394;2023-07-13T15:15:09;1.52;;;0.82;;
81195;SDS011;70671;43.888;-79.394;2023-07-13T15:17:42;2.88;;;0.90;;
81195;SDS011;70671;43.888;-79.394;2023-07-13T15:20:27;0.85;;;0.65;;
81195;SDS011;70671;43.888;-79.394;2023-07-13T15:22:56;1.40;;;0.70;;